Flight Track Log - Related Links

Times and Time Zones

All times are in EDT time to prevent confusion due to time zone crossing. See the N193PP flight status page for this flight to view local times or setup timezone preferences in your user account.

Time Position Orientation Groundspeed Altitude Reporting Facility
EDT Latitude Longitude Course Direction KTS MPH feet Rate Location/Type
Sat 04:37:03 PM 30.4450 -85.4708 North 247 284 15,700  Level Jacksonville Center
Sat 04:38:03 PM 30.5183 -85.4656 North 231 266 18,000 2,300 Climbing Jacksonville Center
Sat 04:39:03 PM 30.5956 -85.4603 North 244 281 20,300 2,200 Climbing Jacksonville Center
Sat 04:40:03 PM 30.6731 -85.4528 North 264 304 22,400 1,950 Climbing Jacksonville Center
Sat 04:41:03 PM 30.7567 -85.4453 North 282 325 24,200 1,300 Climbing Jacksonville Center
Sat 04:42:03 PM 30.8444 -85.4381 North 299 344 25,000 400 Climbing Jacksonville Center
Sat 04:43:03 PM 30.9408 -85.4261 North 320 368 25,000  Level Jacksonville Center
Sat 04:44:03 PM 31.0369 -85.4142 North 340 391 25,000  Level Jacksonville Center
Sat 04:45:03 PM 31.1436 -85.4072 North 362 417 25,000  Level Jacksonville Center
Sat 04:46:03 PM 31.2483 -85.3956 North 369 425 25,000  Level Jacksonville Center
Sat 04:47:42 PM 31.4200 -85.3797 North 380 437 25,000  Level Atlanta Center
Sat 04:48:42 PM 31.5411 -85.3644 North 389 448 25,000  Level Atlanta Center
Sat 04:49:42 PM 31.6478 -85.3539 North 389 448 25,000  Level Atlanta Center
Sat 04:50:42 PM 31.7522 -85.3431 North 384 442 25,000  Level Atlanta Center
Sat 04:51:42 PM 31.8650 -85.3325 North 390 449 25,000 -200 Level Atlanta Center
Sat 04:52:42 PM 31.9739 -85.3194 North 390 449 24,600 -450 Descending Atlanta Center
Sat 04:53:42 PM 32.0844 -85.3086 North 390 449 24,100 -300 Descending Atlanta Center
Sat 04:54:42 PM 32.1869 -85.2978 North 385 443 24,000 -550 Descending Atlanta Center
Sat 04:55:42 PM 32.2889 -85.3214 349° North 374 430 23,000 -1,250 Descending Atlanta Center
Sat 04:56:42 PM 32.3886 -85.3622 341° North 373 429 21,500 -1,500 Descending Atlanta Center
Sat 04:57:42 PM 32.4822 -85.3981 342° North 362 417 20,000 -1,550 Descending Atlanta Center
Sat 04:58:42 PM 32.5611 -85.4264 343° North 331 381 18,400 -1,400 Descending Atlanta Center
Sat 04:59:42 PM 32.6467 -85.4450 350° North 313 360 17,200 -700 Descending Atlanta Center
Sat 05:00:42 PM 32.7364 -85.4439 North 313 360 17,000 -600 Descending Atlanta Center
Sat 05:01:42 PM 32.8219 -85.4478 358° North 313 360 16,000 -1,000 Descending Atlanta Center
Sat 05:02:42 PM 32.8925 -85.4811 338° Northwest 290 334 15,000 -1,150 Descending Atlanta Center
Sat 05:03:42 PM 32.9631 -85.5219 334° Northwest 279 321 13,700 -1,350 Descending Atlanta Center
Sat 05:04:42 PM 33.0061 -85.5869 308° West 268 308 12,300 -1,200 Descending Atlanta Center
Sat 05:05:42 PM 33.0050 -85.6711 269° West 243 280 11,300 -650 Descending Atlanta Center
Sat 05:06:42 PM 32.9978 -85.7428 263° West 230 265 11,000 -150 Descending Atlanta Center
Sat 05:07:42 PM 33.0133 -85.8175 284° West 230 265 11,000  Level Atlanta Center
Sat 05:08:42 PM 33.0714 -85.8458 338° Northwest 221 254 11,000 -400 Level Atlanta Center
Sat 05:09:42 PM 33.1444 -85.8375 North 197 227 10,200 -850 Descending Atlanta Center
Sat 05:10:42 PM 33.2158 -85.8092 18° North 235 270 9,300 -800 Descending Atlanta Center
Sat 05:11:42 PM 33.2872 -85.7833 17° North 246 283 8,600 -650 Descending Atlanta Center
Sat 05:12:42 PM 33.3586 -85.7597 15° North 258 297 8,000 -300 Descending Atlanta Center
Sat 05:13:42 PM 33.4133 -85.7236 29° Northeast 247 284 8,000 -300 Level Atlanta Center
Sat 05:14:42 PM 33.4517 -85.6597 54° Northeast 226 260 7,400 -800 Descending Atlanta Center
Sat 05:15:42 PM 33.4839 -85.6006 57° Northeast 226 260 6,400 -750 Descending Atlanta Center
Sat 05:16:42 PM 33.5281 -85.5564 40° Northeast 207 238 5,900 -600 Descending Atlanta Center
Sat 05:17:42 PM 33.5808 -85.5275 25° Northeast 199 229 5,200 -450 Descending Atlanta Center
Sat 05:18:42 PM 33.6231 -85.4808 43° Northeast 204 235 5,000 -100 Descending Atlanta Center
Sat 05:19:42 PM 33.6425 -85.4236 68° East 186 214 5,000  Level Atlanta Center
Sat 05:20:42 PM 33.6619 -85.3617 69° East 186 214 5,000  Level Atlanta Center
Sat 05:21:42 PM 33.6792 -85.3094 68° East 192 221 5,000 -400 Level Atlanta Center
Sat 05:22:42 PM 33.7194 -85.2575 47° Northeast 198 228 4,200 -500 Descending Atlanta Center
Sat 05:23:42 PM 33.7553 -85.2031 52° Northeast 204 235 4,000 -100 Descending Atlanta Center
Sat 05:24:42 PM 33.7933 -85.1536 47° Northeast 204 235 4,000  Level Atlanta Center
Sat 05:25:42 PM 33.8272 -85.1042 50° Northeast 195 224 4,000  Level Atlanta Center
Sat 05:26:42 PM 33.8714 -85.0572 41° Northeast 195 224 4,000  Level Atlanta Center
Sat 05:27:42 PM 33.9117 -85.0025 48° Northeast 195 224 4,000 500 Level Atlanta Center
Sat 05:28:42 PM 33.9433 -84.9478 55° Northeast 196 226 5,000 -500 Climbing Atlanta Center
Sat 05:29:42 PM 33.9644 -84.8903 66° East 179 206 3,000 -793 Descending Atlanta Center
Sat 05:31:36 PM 34.0000 -84.7833 68° East 157 181 2,700 -100 Descending Atlanta TRACON
Sat 05:32:42 PM 34.0000 -84.7333 90° East 163 188 2,700 -476 Level Atlanta TRACON
Sat 05:33:42 PM 34.0167 -84.6833 68° East 150 173 1,700 -1,000 Descending Atlanta TRACON

Login

Don't have an account? Register now (free) for customized features, flight alerts, and more!